createdAt,value
2018-12-04T00:00:28.868Z,9.70
2018-12-04T00:02:57.017Z,9.70
2018-12-04T00:05:25.224Z,9.60
2018-12-04T00:07:53.403Z,9.60
2018-12-04T00:10:21.559Z,9.60
2018-12-04T00:12:49.615Z,9.40
2018-12-04T00:15:17.775Z,9.30
2018-12-04T00:17:45.863Z,9.20
2018-12-04T00:20:14.018Z,9.20
2018-12-04T00:22:42.207Z,9.20
2018-12-04T00:25:10.396Z,9.20
2018-12-04T00:27:38.463Z,9.20
2018-12-04T00:30:07.467Z,9.10
2018-12-04T00:32:35.605Z,9.20
2018-12-04T00:35:04.122Z,9.20
2018-12-04T00:37:32.256Z,9.20
2018-12-04T00:40:00.350Z,9.10
2018-12-04T00:42:28.422Z,9.10
2018-12-04T00:44:56.551Z,9.10
2018-12-04T00:47:24.682Z,9.00
2018-12-04T00:49:52.841Z,9.00
2018-12-04T00:52:21.951Z,9.00
2018-12-04T00:54:50.035Z,9.00
2018-12-04T00:57:18.100Z,9.00
2018-12-04T00:59:46.164Z,9.00
2018-12-04T01:02:14.225Z,9.00
2018-12-04T01:04:42.457Z,8.90
2018-12-04T01:07:10.602Z,8.90
2018-12-04T01:09:38.731Z,8.90
2018-12-04T01:12:06.892Z,8.90
2018-12-04T01:14:35.012Z,8.80
2018-12-04T01:17:03.138Z,8.80
2018-12-04T01:19:31.229Z,8.80
2018-12-04T01:21:59.284Z,8.80
2018-12-04T01:24:27.457Z,8.80
2018-12-04T01:26:55.631Z,8.80
2018-12-04T01:29:23.812Z,8.70
2018-12-04T01:31:51.874Z,8.70
2018-12-04T01:34:20.042Z,8.70
2018-12-04T01:36:48.117Z,8.80
2018-12-04T01:39:16.348Z,8.70
2018-12-04T01:41:44.507Z,8.80
2018-12-04T01:44:12.621Z,8.80
2018-12-04T01:46:40.718Z,8.70
2018-12-04T01:49:08.903Z,8.70
2018-12-04T01:51:37.002Z,8.70
2018-12-04T01:54:05.183Z,8.70
2018-12-04T01:56:33.255Z,8.70
2018-12-04T01:59:01.248Z,8.70
2018-12-04T02:01:29.399Z,8.70
2018-12-04T02:03:59.450Z,8.70
2018-12-04T02:06:27.487Z,8.60
2018-12-04T02:08:56.433Z,8.60
2018-12-04T02:11:24.616Z,8.60
2018-12-04T02:13:52.703Z,8.60
2018-12-04T02:16:20.831Z,8.60
2018-12-04T02:18:48.838Z,8.60
2018-12-04T02:21:16.974Z,8.60
2018-12-04T02:23:45.101Z,8.60
2018-12-04T02:26:13.339Z,8.60
2018-12-04T02:28:41.836Z,8.60
2018-12-04T02:31:10.611Z,8.60
2018-12-04T02:33:39.026Z,8.60
2018-12-04T02:36:07.096Z,8.50
2018-12-04T02:38:35.250Z,8.60
2018-12-04T02:41:03.444Z,8.50
2018-12-04T02:43:31.543Z,8.50
2018-12-04T02:45:59.615Z,8.50
2018-12-04T02:48:27.743Z,8.50
2018-12-04T02:50:55.867Z,8.40
2018-12-04T02:53:24.096Z,8.40
2018-12-04T02:55:52.125Z,8.40
2018-12-04T02:58:20.238Z,8.30
2018-12-04T03:00:48.373Z,8.20
2018-12-04T03:03:16.454Z,8.20
2018-12-04T03:05:44.635Z,8.20
2018-12-04T03:08:12.743Z,8.20
2018-12-04T03:10:40.904Z,8.10
2018-12-04T03:13:09.110Z,8.10
2018-12-04T03:15:37.210Z,8.10
2018-12-04T03:18:05.313Z,8.10
2018-12-04T03:20:34.099Z,8.10
2018-12-04T03:23:02.225Z,8.10
2018-12-04T03:25:30.298Z,8.00
2018-12-04T03:27:58.452Z,8.00
2018-12-04T03:30:26.532Z,8.00
2018-12-04T03:32:54.637Z,7.90
2018-12-04T03:35:22.710Z,7.90
2018-12-04T03:37:50.803Z,7.90
2018-12-04T03:40:18.947Z,7.90
2018-12-04T03:42:47.046Z,7.90
2018-12-04T03:45:15.117Z,7.90
2018-12-04T03:47:43.220Z,7.90
2018-12-04T03:50:11.363Z,7.90
2018-12-04T03:52:39.615Z,7.80
2018-12-04T03:55:07.810Z,7.80
2018-12-04T03:57:35.877Z,7.80
2018-12-04T04:00:05.018Z,7.70
2018-12-04T04:02:33.159Z,7.70
2018-12-04T04:05:01.272Z,7.70
2018-12-04T04:07:29.316Z,7.70
2018-12-04T04:09:57.416Z,7.60
2018-12-04T04:12:25.614Z,7.60
2018-12-04T04:14:53.698Z,7.60
2018-12-04T04:17:21.850Z,7.60
2018-12-04T04:19:49.915Z,7.60
2018-12-04T04:22:18.042Z,7.50
2018-12-04T04:24:46.107Z,7.50
2018-12-04T04:27:14.208Z,7.50
2018-12-04T04:29:42.379Z,7.60
2018-12-04T04:32:10.476Z,7.60
2018-12-04T04:34:38.659Z,7.50
2018-12-04T04:37:06.816Z,7.50
2018-12-04T04:39:34.908Z,7.50
2018-12-04T04:42:03.183Z,7.60
2018-12-04T04:44:31.193Z,7.50
2018-12-04T04:46:59.274Z,7.50
2018-12-04T04:49:27.468Z,7.40
2018-12-04T04:51:55.695Z,7.40
2018-12-04T04:54:23.795Z,7.30
2018-12-04T04:56:52.068Z,7.30
2018-12-04T04:59:20.180Z,7.20
2018-12-04T05:01:48.365Z,7.20
2018-12-04T05:04:16.559Z,7.10
2018-12-04T05:06:44.728Z,7.10
2018-12-04T05:09:12.822Z,7.10
2018-12-04T05:11:40.943Z,7.10
2018-12-04T05:14:09.411Z,7.00
2018-12-04T05:16:37.485Z,7.00
2018-12-04T05:19:05.579Z,7.00
2018-12-04T05:21:33.776Z,7.00
2018-12-04T05:24:01.839Z,6.90
2018-12-04T05:26:30.012Z,6.90
2018-12-04T05:28:58.079Z,6.90
2018-12-04T05:31:26.184Z,6.80
2018-12-04T05:33:54.389Z,6.80
2018-12-04T05:36:22.458Z,6.80
2018-12-04T05:38:50.588Z,6.80
2018-12-04T05:41:18.627Z,6.70
2018-12-04T05:43:46.682Z,6.70
2018-12-04T05:46:14.864Z,6.70
2018-12-04T05:48:43.339Z,6.70
2018-12-04T05:51:11.404Z,6.60
2018-12-04T05:53:39.459Z,6.60
2018-12-04T05:56:11.009Z,6.60
2018-12-04T05:58:39.083Z,6.60
2018-12-04T06:01:07.190Z,6.50
2018-12-04T06:03:35.351Z,6.50
2018-12-04T06:06:03.592Z,6.60
2018-12-04T06:08:31.704Z,6.60
2018-12-04T06:10:59.775Z,6.50
2018-12-04T06:13:27.817Z,6.50
2018-12-04T06:15:56.005Z,6.50
2018-12-04T06:18:24.187Z,6.50
2018-12-04T06:20:52.367Z,6.50
2018-12-04T06:23:20.588Z,6.50
2018-12-04T06:25:48.916Z,6.50
2018-12-04T06:28:17.015Z,6.40
2018-12-04T06:30:45.168Z,6.50
2018-12-04T06:33:13.352Z,6.50
2018-12-04T06:35:41.452Z,6.40
2018-12-04T06:38:10.321Z,6.40
2018-12-04T06:40:38.612Z,6.40
2018-12-04T06:43:06.762Z,6.40
2018-12-04T06:45:35.140Z,6.40
2018-12-04T06:48:03.247Z,6.40
2018-12-04T06:50:31.356Z,6.40
2018-12-04T06:52:59.419Z,6.40
2018-12-04T06:55:27.515Z,6.40
2018-12-04T06:57:57.927Z,6.40
2018-12-04T07:00:26.030Z,6.40
2018-12-04T07:02:54.115Z,6.40
2018-12-04T07:05:22.243Z,6.40
2018-12-04T07:07:50.402Z,6.30
2018-12-04T07:10:18.591Z,6.30
2018-12-04T07:12:46.714Z,6.30
2018-12-04T07:15:14.833Z,6.30
2018-12-04T07:17:43.022Z,6.30
2018-12-04T07:20:11.178Z,6.20
2018-12-04T07:22:39.273Z,6.20
2018-12-04T07:25:07.763Z,6.20
2018-12-04T07:27:35.874Z,6.20
2018-12-04T07:30:06.194Z,6.20
2018-12-04T07:32:38.739Z,6.20
2018-12-04T07:35:06.040Z,6.20
2018-12-04T07:37:34.194Z,6.20
2018-12-04T07:40:02.279Z,7.70
2018-12-04T07:42:30.592Z,8.20
2018-12-04T07:44:59.321Z,7.00
2018-12-04T07:47:27.435Z,6.60
2018-12-04T07:49:55.537Z,6.40
2018-12-04T07:52:23.658Z,6.30
2018-12-04T07:54:51.943Z,6.30
2018-12-04T07:57:20.098Z,6.20
2018-12-04T07:59:48.203Z,6.20
2018-12-04T08:02:16.305Z,6.20
2018-12-04T08:04:45.105Z,6.20
2018-12-04T08:07:13.239Z,6.20
2018-12-04T08:09:42.083Z,6.10
2018-12-04T08:12:10.424Z,6.10
2018-12-04T08:14:38.527Z,6.10
2018-12-04T08:17:06.728Z,6.10
2018-12-04T08:19:34.811Z,6.20
2018-12-04T08:22:02.941Z,6.20
2018-12-04T08:24:31.275Z,6.20
2018-12-04T08:26:59.472Z,6.20
2018-12-04T08:29:27.672Z,6.20
2018-12-04T08:31:55.728Z,6.20
2018-12-04T08:34:23.831Z,6.20
2018-12-04T08:36:51.884Z,6.10
2018-12-04T08:39:20.056Z,6.20
2018-12-04T08:41:48.188Z,6.10
2018-12-04T08:44:16.287Z,6.20
2018-12-04T08:46:44.692Z,6.20
2018-12-04T08:49:12.794Z,6.20
2018-12-04T08:51:40.961Z,6.20
2018-12-04T08:54:09.033Z,6.20
2018-12-04T08:56:37.139Z,6.20
2018-12-04T08:59:05.297Z,6.20
2018-12-04T09:01:33.475Z,6.30
2018-12-04T09:04:01.575Z,6.30
2018-12-04T09:06:33.846Z,6.40
2018-12-04T09:09:02.170Z,6.40
2018-12-04T09:11:30.251Z,6.30
2018-12-04T09:13:58.548Z,6.40
2018-12-04T09:16:26.659Z,6.40
2018-12-04T09:18:54.819Z,6.40
2018-12-04T09:21:22.919Z,6.50
2018-12-04T09:23:51.075Z,6.60
2018-12-04T09:26:19.255Z,6.60
2018-12-04T09:28:47.390Z,6.60
2018-12-04T09:31:15.652Z,6.70
2018-12-04T09:33:43.834Z,6.70
2018-12-04T09:36:12.116Z,6.70
2018-12-04T09:38:40.251Z,6.70
2018-12-04T09:41:08.278Z,6.70
2018-12-04T09:43:36.311Z,6.80
2018-12-04T09:46:04.483Z,6.80
2018-12-04T09:48:32.645Z,6.80
2018-12-04T09:51:00.753Z,6.90
2018-12-04T09:53:28.824Z,7.00
2018-12-04T09:55:56.875Z,7.00
2018-12-04T09:58:25.035Z,7.00
2018-12-04T10:00:53.138Z,7.10
2018-12-04T10:03:21.362Z,7.10
2018-12-04T10:05:49.440Z,7.10
2018-12-04T10:08:20.527Z,7.10
2018-12-04T10:10:48.706Z,7.10
2018-12-04T10:13:16.977Z,7.10
2018-12-04T10:15:45.044Z,7.20
2018-12-04T10:18:13.239Z,7.20
2018-12-04T10:20:41.402Z,7.30
2018-12-04T10:23:09.583Z,7.40
2018-12-04T10:25:42.035Z,7.50
2018-12-04T10:28:10.244Z,7.40
2018-12-04T10:30:38.476Z,7.50
2018-12-04T10:33:06.580Z,7.50
2018-12-04T10:35:34.807Z,7.60
2018-12-04T10:38:02.856Z,7.60
2018-12-04T10:40:30.971Z,7.70
2018-12-04T10:42:59.056Z,7.80
2018-12-04T10:45:27.222Z,7.90
2018-12-04T10:47:55.351Z,8.10
2018-12-04T10:50:23.468Z,8.70
2018-12-04T10:52:51.606Z,9.30
2018-12-04T10:55:19.703Z,9.90
2018-12-04T10:57:47.787Z,10.10
2018-12-04T11:00:21.580Z,10.80
2018-12-04T11:02:50.136Z,10.90
2018-12-04T11:05:18.235Z,11.30
2018-12-04T11:07:46.507Z,11.20
2018-12-04T11:10:14.581Z,11.80
2018-12-04T11:12:42.667Z,12.30
2018-12-04T11:15:10.820Z,12.50
2018-12-04T11:17:38.945Z,12.60
2018-12-04T11:20:09.067Z,13.10
2018-12-04T11:22:37.144Z,13.20
2018-12-04T11:25:06.973Z,13.50
2018-12-04T11:27:35.170Z,13.30
2018-12-04T11:30:03.850Z,13.00
2018-12-04T11:32:32.006Z,13.30
2018-12-04T11:35:00.133Z,13.30
2018-12-04T11:37:28.889Z,13.30
2018-12-04T11:39:57.075Z,13.80
2018-12-04T11:42:25.452Z,14.10
2018-12-04T11:44:53.648Z,14.80
2018-12-04T11:47:21.715Z,14.30
2018-12-04T11:49:49.835Z,15.10
2018-12-04T11:52:18.206Z,14.50
2018-12-04T11:54:46.324Z,14.70
2018-12-04T11:57:14.540Z,15.40
2018-12-04T11:59:42.631Z,15.40
2018-12-04T12:02:10.961Z,15.30
2018-12-04T12:04:39.072Z,16.60
2018-12-04T12:07:07.253Z,16.20
2018-12-04T12:09:35.263Z,16.70
2018-12-04T12:12:03.368Z,17.70
2018-12-04T12:14:31.479Z,16.70
2018-12-04T12:16:59.573Z,17.40
2018-12-04T12:19:27.651Z,16.10
2018-12-04T12:21:55.719Z,15.70
2018-12-04T12:24:23.823Z,15.40
2018-12-04T12:26:51.898Z,15.30
2018-12-04T12:29:19.987Z,14.70
2018-12-04T12:31:48.218Z,15.30
2018-12-04T12:34:16.429Z,15.00
2018-12-04T12:36:44.607Z,15.10
2018-12-04T12:39:13.056Z,15.20
2018-12-04T12:41:41.183Z,16.40
2018-12-04T12:44:09.313Z,15.80
2018-12-04T12:46:37.504Z,15.50
2018-12-04T12:49:05.664Z,15.70
2018-12-04T12:51:33.755Z,15.60
2018-12-04T12:54:01.952Z,15.50
2018-12-04T12:56:30.068Z,15.80
2018-12-04T12:58:58.404Z,16.10
2018-12-04T13:01:26.571Z,16.50
2018-12-04T13:03:54.703Z,16.40
2018-12-04T13:06:22.919Z,15.90
2018-12-04T13:08:51.004Z,16.00
2018-12-04T13:11:19.136Z,15.40
2018-12-04T13:13:47.187Z,15.00
2018-12-04T13:16:15.419Z,14.50
2018-12-04T13:18:43.587Z,14.50
2018-12-04T13:21:11.756Z,14.70
2018-12-04T13:23:40.129Z,14.90
2018-12-04T13:26:08.503Z,14.50
2018-12-04T13:28:36.599Z,13.90
2018-12-04T13:31:04.726Z,12.80
2018-12-04T13:33:32.912Z,11.60
2018-12-04T13:36:00.995Z,10.90
2018-12-04T13:38:29.125Z,10.90
2018-12-04T13:40:57.404Z,10.70
2018-12-04T13:43:25.426Z,10.60
2018-12-04T13:45:53.647Z,10.30
2018-12-04T13:48:21.791Z,10.10
2018-12-04T13:50:49.991Z,9.80
2018-12-04T13:53:18.151Z,9.70
2018-12-04T13:55:46.214Z,9.60
2018-12-04T13:58:14.303Z,9.50
2018-12-04T14:00:42.470Z,9.40
2018-12-04T14:03:10.702Z,9.20
2018-12-04T14:05:45.324Z,9.10
2018-12-04T14:08:13.505Z,9.00
2018-12-04T14:10:41.671Z,9.00
2018-12-04T14:13:09.852Z,8.90
2018-12-04T14:15:37.915Z,8.90
2018-12-04T14:18:06.022Z,8.90
2018-12-04T14:20:34.166Z,8.70
2018-12-04T14:23:02.332Z,8.70
2018-12-04T14:25:30.436Z,8.70
2018-12-04T14:27:58.552Z,8.60
2018-12-04T14:30:26.681Z,8.60
2018-12-04T14:32:54.830Z,8.50
2018-12-04T14:35:23.023Z,8.50
2018-12-04T14:37:51.199Z,8.50
2018-12-04T14:40:19.602Z,8.40
2018-12-04T14:42:47.690Z,8.30
2018-12-04T14:45:15.854Z,8.20
2018-12-04T14:47:43.944Z,8.20
2018-12-04T14:50:12.101Z,8.20
2018-12-04T14:52:40.270Z,8.10
2018-12-04T14:55:08.568Z,8.10
2018-12-04T14:57:36.826Z,8.10
2018-12-04T15:00:06.776Z,8.10
2018-12-04T15:02:34.920Z,8.10
2018-12-04T15:05:03.025Z,8.00
2018-12-04T15:07:31.190Z,7.90
2018-12-04T15:09:59.349Z,7.80
2018-12-04T15:12:27.629Z,7.70
2018-12-04T15:14:55.810Z,7.70
2018-12-04T15:17:23.963Z,7.70
2018-12-04T15:19:52.884Z,7.70
2018-12-04T15:22:21.021Z,7.70
2018-12-04T15:24:49.111Z,7.60
2018-12-04T15:27:17.292Z,7.60
2018-12-04T15:29:45.527Z,7.50
2018-12-04T15:32:13.627Z,7.50
2018-12-04T15:34:41.713Z,7.40
2018-12-04T15:37:09.823Z,7.40
2018-12-04T15:39:37.990Z,7.40
2018-12-04T15:42:06.084Z,7.40
2018-12-04T15:44:34.172Z,7.30
2018-12-04T15:47:02.385Z,7.40
2018-12-04T15:49:30.583Z,7.40
2018-12-04T15:51:58.795Z,7.40
2018-12-04T15:54:26.875Z,7.40
2018-12-04T15:56:55.072Z,7.50
2018-12-04T15:59:23.730Z,7.40
2018-12-04T16:01:51.886Z,7.40
2018-12-04T16:04:20.079Z,7.30
2018-12-04T16:06:48.249Z,7.30
2018-12-04T16:09:16.321Z,7.30
2018-12-04T16:11:44.467Z,7.20
2018-12-04T16:14:12.661Z,7.10
2018-12-04T16:16:40.784Z,7.00
2018-12-04T16:19:08.811Z,6.90
2018-12-04T16:21:36.993Z,6.90
2018-12-04T16:24:05.388Z,6.80
2018-12-04T16:26:33.535Z,6.80
2018-12-04T16:29:01.547Z,6.70
2018-12-04T16:31:29.582Z,6.70
2018-12-04T16:33:57.683Z,6.60
2018-12-04T16:36:25.744Z,6.60
2018-12-04T16:38:53.843Z,6.60
2018-12-04T16:41:21.979Z,6.60
2018-12-04T16:43:50.327Z,6.50
2018-12-04T16:46:18.495Z,6.40
2018-12-04T16:48:46.667Z,6.40
2018-12-04T16:51:14.777Z,6.40
2018-12-04T16:53:42.892Z,6.30
2018-12-04T16:56:10.990Z,6.30
2018-12-04T16:58:39.067Z,6.30
2018-12-04T17:01:07.182Z,6.30
2018-12-04T17:03:35.366Z,6.30
2018-12-04T17:06:04.909Z,6.20
2018-12-04T17:08:33.203Z,6.20
2018-12-04T17:11:01.387Z,6.20
2018-12-04T17:13:29.503Z,6.10
2018-12-04T17:15:58.156Z,6.10
2018-12-04T17:18:26.343Z,6.10
2018-12-04T17:20:54.527Z,6.10
2018-12-04T17:23:22.619Z,6.10
2018-12-04T17:25:50.702Z,6.00
2018-12-04T17:28:18.915Z,6.00
2018-12-04T17:30:46.929Z,6.00
2018-12-04T17:33:15.163Z,6.00
2018-12-04T17:35:43.333Z,5.90
2018-12-04T17:38:11.386Z,5.90
2018-12-04T17:40:39.578Z,5.90
2018-12-04T17:43:07.719Z,5.90
2018-12-04T17:45:35.871Z,5.80
2018-12-04T17:48:03.973Z,5.80
2018-12-04T17:50:32.087Z,5.80
2018-12-04T17:53:00.183Z,5.80
2018-12-04T17:55:28.271Z,5.70
2018-12-04T17:57:56.447Z,5.70
2018-12-04T18:00:24.590Z,5.70
2018-12-04T18:02:52.699Z,5.70
2018-12-04T18:05:20.859Z,5.70
2018-12-04T18:07:48.913Z,5.70
2018-12-04T18:10:17.074Z,5.60
2018-12-04T18:12:45.271Z,5.60
2018-12-04T18:15:13.522Z,5.60
2018-12-04T18:17:42.006Z,5.60
2018-12-04T18:20:10.210Z,5.60
2018-12-04T18:22:38.339Z,5.60
2018-12-04T18:25:06.461Z,5.60
2018-12-04T18:27:34.542Z,5.60
2018-12-04T18:30:02.716Z,5.60
2018-12-04T18:32:30.821Z,5.60
2018-12-04T18:34:58.834Z,5.60
2018-12-04T18:37:26.998Z,5.60
2018-12-04T18:39:55.106Z,5.60
2018-12-04T18:42:23.256Z,5.60
2018-12-04T18:44:51.323Z,5.60
2018-12-04T18:47:19.572Z,5.60
2018-12-04T18:49:47.635Z,5.60
2018-12-04T18:52:15.664Z,5.60
2018-12-04T18:54:43.695Z,5.50
2018-12-04T18:57:11.839Z,5.50
2018-12-04T18:59:40.004Z,5.50
2018-12-04T19:02:08.221Z,5.50
2018-12-04T19:04:36.379Z,5.50
2018-12-04T19:07:04.440Z,5.50
2018-12-04T19:09:32.541Z,5.50
2018-12-04T19:12:00.599Z,5.50
2018-12-04T19:14:28.788Z,5.40
2018-12-04T19:16:56.969Z,5.40
2018-12-04T19:19:25.012Z,5.40
2018-12-04T19:21:53.089Z,5.40
2018-12-04T19:24:22.189Z,5.40
2018-12-04T19:26:50.200Z,5.40
2018-12-04T19:29:18.479Z,5.40
2018-12-04T19:31:46.595Z,5.30
2018-12-04T19:34:14.865Z,5.30
2018-12-04T19:36:42.943Z,5.30
2018-12-04T19:39:11.051Z,5.30
2018-12-04T19:41:39.237Z,5.30
2018-12-04T19:44:07.334Z,5.30
2018-12-04T19:46:35.416Z,5.30
2018-12-04T19:49:03.530Z,5.30
2018-12-04T19:51:31.575Z,5.30
2018-12-04T19:53:59.666Z,5.20
2018-12-04T19:56:27.731Z,5.20
2018-12-04T19:58:55.887Z,5.20
2018-12-04T20:01:24.115Z,5.20
2018-12-04T20:03:52.123Z,5.20
2018-12-04T20:06:20.427Z,5.20
2018-12-04T20:08:52.348Z,5.20
2018-12-04T20:11:20.515Z,5.10
2018-12-04T20:13:48.627Z,5.20
2018-12-04T20:16:16.706Z,5.20
2018-12-04T20:18:44.817Z,5.20
2018-12-04T20:21:13.051Z,5.20
2018-12-04T20:23:41.110Z,5.20
2018-12-04T20:26:09.256Z,5.20
2018-12-04T20:28:37.305Z,5.20
2018-12-04T20:31:05.391Z,5.10
2018-12-04T20:33:33.479Z,5.10
2018-12-04T20:36:02.115Z,5.10
2018-12-04T20:38:30.202Z,5.10
2018-12-04T20:40:59.780Z,5.10
2018-12-04T20:43:27.852Z,5.10
2018-12-04T20:45:56.010Z,5.00
2018-12-04T20:48:24.094Z,5.00
2018-12-04T20:50:52.174Z,5.00
2018-12-04T20:53:20.247Z,5.00
2018-12-04T20:55:48.396Z,5.00
2018-12-04T20:58:16.515Z,5.00
2018-12-04T21:00:44.543Z,5.00
2018-12-04T21:03:12.601Z,5.00
2018-12-04T21:05:41.575Z,5.00
2018-12-04T21:08:09.659Z,5.00
2018-12-04T21:10:37.759Z,5.00
2018-12-04T21:13:05.802Z,4.90
2018-12-04T21:15:33.894Z,4.90
2018-12-04T21:18:02.028Z,4.90
2018-12-04T21:20:30.095Z,4.90
2018-12-04T21:22:58.288Z,4.90
2018-12-04T21:25:26.451Z,4.90
2018-12-04T21:27:59.859Z,4.90
2018-12-04T21:30:33.415Z,4.90
2018-12-04T21:33:06.963Z,5.00
2018-12-04T21:35:40.443Z,5.00
2018-12-04T21:38:14.163Z,4.90
2018-12-04T21:41:45.224Z,5.00
2018-12-04T21:44:18.613Z,4.90
2018-12-04T21:46:52.042Z,5.00
2018-12-04T21:49:20.303Z,5.00
2018-12-04T21:51:48.394Z,4.90
2018-12-04T21:54:16.592Z,4.90
2018-12-04T21:56:44.646Z,4.90
2018-12-04T21:59:12.623Z,4.90
2018-12-04T22:01:40.708Z,4.90
2018-12-04T22:04:08.834Z,4.90
2018-12-04T22:06:36.899Z,4.90
2018-12-04T22:09:06.713Z,4.90
2018-12-04T22:11:36.006Z,4.80
2018-12-04T22:14:04.359Z,4.80
2018-12-04T22:16:32.454Z,4.80
2018-12-04T22:19:00.616Z,4.80
2018-12-04T22:21:29.185Z,4.80
2018-12-04T22:23:57.266Z,4.80
2018-12-04T22:26:25.403Z,4.80
2018-12-04T22:28:53.507Z,4.80
2018-12-04T22:31:21.574Z,4.80
2018-12-04T22:33:49.909Z,4.80
2018-12-04T22:36:18.151Z,4.80
2018-12-04T22:38:46.216Z,4.80
2018-12-04T22:41:14.283Z,4.80
2018-12-04T22:43:42.443Z,4.80
2018-12-04T22:46:10.554Z,4.80
2018-12-04T22:48:38.658Z,4.80
2018-12-04T22:51:06.899Z,4.70
2018-12-04T22:53:35.033Z,4.80
2018-12-04T22:56:03.191Z,4.80
2018-12-04T22:58:31.300Z,4.70
2018-12-04T23:00:59.547Z,4.70
2018-12-04T23:03:27.631Z,4.70
2018-12-04T23:05:55.696Z,4.70
2018-12-04T23:08:23.758Z,4.70
2018-12-04T23:10:51.836Z,4.70
2018-12-04T23:13:19.944Z,4.70
2018-12-04T23:15:48.050Z,4.70
2018-12-04T23:18:16.219Z,4.70
2018-12-04T23:20:44.412Z,4.70
2018-12-04T23:23:12.437Z,4.70
2018-12-04T23:25:40.571Z,4.70
2018-12-04T23:28:09.215Z,4.70
2018-12-04T23:30:37.328Z,4.70
2018-12-04T23:33:05.330Z,4.70
2018-12-04T23:35:33.465Z,4.70
2018-12-04T23:38:01.475Z,4.70
2018-12-04T23:40:29.503Z,4.80
2018-12-04T23:42:57.515Z,4.70
2018-12-04T23:45:25.576Z,4.70
2018-12-04T23:47:53.648Z,5.50
2018-12-04T23:50:21.796Z,5.80
2018-12-04T23:52:49.891Z,5.40
2018-12-04T23:55:18.064Z,5.10
2018-12-04T23:57:46.131Z,5.00
